createdAt,value
2023-04-27T00:00:49.386Z,4.17
2023-04-27T00:03:16.550Z,4.23
2023-04-27T00:05:44.217Z,4.23
2023-04-27T00:08:11.016Z,4.13
2023-04-27T00:10:37.701Z,3.67
2023-04-27T00:13:04.399Z,3.50
2023-04-27T00:15:31.031Z,4.13
2023-04-27T00:17:57.767Z,3.87
2023-04-27T00:20:25.132Z,3.60
2023-04-27T00:22:51.864Z,3.60
2023-04-27T00:25:18.591Z,3.87
2023-04-27T00:27:45.225Z,3.87
2023-04-27T00:30:12.079Z,3.30
2023-04-27T00:32:38.840Z,3.90
2023-04-27T00:35:06.143Z,3.43
2023-04-27T00:37:32.793Z,3.37
2023-04-27T00:39:59.436Z,3.40
2023-04-27T00:42:26.285Z,3.30
2023-04-27T00:44:52.952Z,2.93
2023-04-27T00:47:19.689Z,3.50
2023-04-27T00:49:46.472Z,3.00
2023-04-27T00:52:13.220Z,3.33
2023-04-27T00:54:42.311Z,3.63
2023-04-27T00:57:09.128Z,3.07
2023-04-27T00:59:35.898Z,3.77
2023-04-27T01:02:02.907Z,4.03
2023-04-27T01:04:32.304Z,3.20
2023-04-27T01:06:59.249Z,3.90
2023-04-27T01:09:26.196Z,3.80
2023-04-27T01:11:52.825Z,3.67
2023-04-27T01:14:19.873Z,3.83
2023-04-27T01:16:46.640Z,3.27
2023-04-27T01:19:13.638Z,3.50
2023-04-27T01:21:40.852Z,3.57
2023-04-27T01:24:08.276Z,3.73
2023-04-27T01:26:34.937Z,3.80
2023-04-27T01:29:01.768Z,3.73
2023-04-27T01:31:28.541Z,3.60
2023-04-27T01:33:55.487Z,3.67
2023-04-27T01:36:22.286Z,3.77
2023-04-27T01:38:48.948Z,4.00
2023-04-27T01:41:18.451Z,3.30
2023-04-27T01:43:45.194Z,3.80
2023-04-27T01:46:13.542Z,3.57
2023-04-27T01:48:40.895Z,4.20
2023-04-27T01:51:07.760Z,3.30
2023-04-27T01:53:34.535Z,3.33
2023-04-27T01:56:01.438Z,3.50
2023-04-27T01:58:28.210Z,3.77
2023-04-27T02:00:57.854Z,3.57
2023-04-27T02:03:24.653Z,3.57
2023-04-27T02:05:51.634Z,3.30
2023-04-27T02:08:18.311Z,3.20
2023-04-27T02:10:44.994Z,3.90
2023-04-27T02:13:11.707Z,4.33
2023-04-27T02:15:40.741Z,3.83
2023-04-27T02:18:07.570Z,3.80
2023-04-27T02:20:34.384Z,4.23
2023-04-27T02:23:02.943Z,3.60
2023-04-27T02:25:29.666Z,3.40
2023-04-27T02:27:56.536Z,3.90
2023-04-27T02:30:23.746Z,3.53
2023-04-27T02:32:51.083Z,4.10
2023-04-27T02:35:17.828Z,3.13
2023-04-27T02:37:44.520Z,4.00
2023-04-27T02:40:11.555Z,4.30
2023-04-27T02:42:38.927Z,3.63
2023-04-27T02:45:09.688Z,3.23
2023-04-27T02:47:36.440Z,3.43
2023-04-27T02:50:04.037Z,3.60
2023-04-27T02:52:30.714Z,3.60
2023-04-27T02:54:57.461Z,4.17
2023-04-27T02:57:24.177Z,3.80
2023-04-27T02:59:50.939Z,3.70
2023-04-27T03:02:17.726Z,4.13
2023-04-27T03:04:44.630Z,3.93
2023-04-27T03:07:12.808Z,4.33
2023-04-27T03:09:39.481Z,4.00
2023-04-27T03:12:06.239Z,4.10
2023-04-27T03:14:32.998Z,4.00
2023-04-27T03:17:00.573Z,4.23
2023-04-27T03:19:27.378Z,5.67
2023-04-27T03:21:53.993Z,3.93
2023-04-27T03:24:21.721Z,3.97
2023-04-27T03:26:48.409Z,3.97
2023-04-27T03:29:15.121Z,4.00
2023-04-27T03:31:42.079Z,3.80
2023-04-27T03:34:08.773Z,4.33
2023-04-27T03:36:35.720Z,3.87
2023-04-27T03:39:04.752Z,4.00
2023-04-27T03:41:31.423Z,3.90
2023-04-27T03:43:58.036Z,3.80
2023-04-27T03:46:24.737Z,4.00
2023-04-27T03:48:51.673Z,4.00
2023-04-27T03:51:18.353Z,3.97
2023-04-27T03:53:48.027Z,4.37
2023-04-27T03:56:14.813Z,4.00
2023-04-27T03:58:41.517Z,3.03
2023-04-27T04:01:10.132Z,3.80
2023-04-27T04:03:37.621Z,4.20
2023-04-27T04:06:04.586Z,4.10
2023-04-27T04:08:32.907Z,4.43
2023-04-27T04:11:00.078Z,4.23
2023-04-27T04:13:27.035Z,3.97
2023-04-27T04:16:07.778Z,4.30
2023-04-27T04:18:35.726Z,4.20
2023-04-27T04:21:02.927Z,3.77
2023-04-27T04:23:29.716Z,4.33
2023-04-27T04:25:57.586Z,4.17
2023-04-27T04:28:25.088Z,3.90
2023-04-27T04:30:52.375Z,3.97
2023-04-27T04:33:19.393Z,4.80
2023-04-27T04:35:46.917Z,4.40
2023-04-27T04:38:13.615Z,4.03
2023-04-27T04:40:43.761Z,4.30
2023-04-27T04:43:12.269Z,4.20
2023-04-27T04:45:38.922Z,4.30
2023-04-27T04:48:06.083Z,4.13
2023-04-27T04:50:32.794Z,4.33
2023-04-27T04:52:59.501Z,5.03
2023-04-27T04:55:28.330Z,4.83
2023-04-27T04:57:55.088Z,4.43
2023-04-27T05:00:22.452Z,4.30
2023-04-27T05:02:49.536Z,4.90
2023-04-27T05:05:16.691Z,5.27
2023-04-27T05:07:43.450Z,4.73
2023-04-27T05:10:10.311Z,5.00
2023-04-27T05:12:37.078Z,4.70
2023-04-27T05:15:04.802Z,5.07
2023-04-27T05:17:31.721Z,4.37
2023-04-27T05:19:58.440Z,4.93
2023-04-27T05:22:28.175Z,5.43
2023-04-27T05:24:55.432Z,5.10
2023-04-27T05:27:22.173Z,5.00
2023-04-27T05:29:48.836Z,5.27
2023-04-27T05:32:15.693Z,4.90
2023-04-27T05:34:45.666Z,5.40
2023-04-27T05:37:14.066Z,5.73
2023-04-27T05:39:40.797Z,4.97
2023-04-27T05:42:07.484Z,5.27
2023-04-27T05:44:34.368Z,5.13
2023-04-27T05:47:01.208Z,5.10
2023-04-27T05:49:27.830Z,5.23
2023-04-27T05:51:54.485Z,4.87
2023-04-27T05:54:21.091Z,5.47
2023-04-27T05:56:47.786Z,5.30
2023-04-27T05:59:14.663Z,4.70
2023-04-27T06:01:41.485Z,4.90
2023-04-27T06:04:08.425Z,4.63
2023-04-27T06:06:35.356Z,5.43
2023-04-27T06:09:02.172Z,5.37
2023-04-27T06:11:28.841Z,4.67
2023-04-27T06:13:55.542Z,4.70
2023-04-27T06:16:23.558Z,4.70
2023-04-27T06:18:51.225Z,4.63
2023-04-27T06:21:18.038Z,5.00
2023-04-27T06:23:44.874Z,4.40
2023-04-27T06:26:11.683Z,4.77
2023-04-27T06:28:38.412Z,4.90
2023-04-27T06:31:06.131Z,4.57
2023-04-27T06:33:33.287Z,4.50
2023-04-27T06:36:01.286Z,4.70
2023-04-27T06:38:28.172Z,4.80
2023-04-27T06:40:55.045Z,5.10
2023-04-27T06:43:22.206Z,4.37
2023-04-27T06:45:49.006Z,4.40
2023-04-27T06:48:16.955Z,4.40
2023-04-27T06:50:44.187Z,4.40
2023-04-27T06:53:11.211Z,4.70
2023-04-27T06:55:38.032Z,5.00
2023-04-27T06:58:04.793Z,4.70
2023-04-27T07:00:32.108Z,4.00
2023-04-27T07:02:59.064Z,4.90
2023-04-27T07:05:26.063Z,4.87
2023-04-27T07:07:52.727Z,4.10
2023-04-27T07:10:19.682Z,4.90
2023-04-27T07:12:49.757Z,4.43
2023-04-27T07:15:16.623Z,3.93
2023-04-27T07:17:43.369Z,4.20
2023-04-27T07:20:10.294Z,4.33
2023-04-27T07:22:36.955Z,4.17
2023-04-27T07:25:05.335Z,4.57
2023-04-27T07:27:32.900Z,4.50
2023-04-27T07:29:59.613Z,4.70
2023-04-27T07:32:28.772Z,3.87
2023-04-27T07:34:56.086Z,3.60
2023-04-27T07:37:23.236Z,3.27
2023-04-27T07:39:54.396Z,3.70
2023-04-27T07:42:25.080Z,4.23
2023-04-27T07:44:52.526Z,4.07
2023-04-27T07:47:19.619Z,3.43
2023-04-27T07:49:47.087Z,3.33
2023-04-27T07:52:14.357Z,3.33
2023-04-27T07:54:41.104Z,3.27
2023-04-27T07:57:11.845Z,3.07
2023-04-27T07:59:39.054Z,2.93
2023-04-27T08:02:18.429Z,2.60
2023-04-27T08:04:47.306Z,2.37
2023-04-27T08:07:16.030Z,2.50
2023-04-27T08:09:43.119Z,2.90
2023-04-27T08:12:09.848Z,2.90
2023-04-27T08:14:36.762Z,3.00
2023-04-27T08:17:03.650Z,2.73
2023-04-27T08:19:30.431Z,3.47
2023-04-27T08:21:57.068Z,3.23
2023-04-27T08:24:23.886Z,2.87
2023-04-27T08:26:50.582Z,2.90
2023-04-27T08:29:27.094Z,2.90
2023-04-27T08:32:01.993Z,2.77
2023-04-27T08:34:29.123Z,3.10
2023-04-27T08:36:56.787Z,2.63
2023-04-27T08:39:24.450Z,2.60
2023-04-27T08:41:51.604Z,2.37
2023-04-27T08:44:18.877Z,2.60
2023-04-27T08:46:45.864Z,2.73
2023-04-27T08:49:15.135Z,2.30
2023-04-27T08:51:43.787Z,2.20
2023-04-27T08:54:10.628Z,2.20
2023-04-27T08:56:53.288Z,2.10
2023-04-27T08:59:20.017Z,2.23
2023-04-27T09:01:48.770Z,2.43
2023-04-27T09:04:17.781Z,2.47
2023-04-27T09:06:45.000Z,2.40
2023-04-27T09:09:22.287Z,2.50
2023-04-27T09:11:49.937Z,2.40
2023-04-27T09:14:17.827Z,2.10
2023-04-27T09:16:44.840Z,2.37
2023-04-27T09:19:12.109Z,1.80
2023-04-27T09:21:38.919Z,2.27
2023-04-27T09:24:13.116Z,2.40
2023-04-27T09:26:42.784Z,2.40
2023-04-27T09:29:09.853Z,2.30
2023-04-27T09:31:36.652Z,2.00
2023-04-27T09:34:04.448Z,2.10
2023-04-27T09:36:32.589Z,2.00
2023-04-27T09:39:02.489Z,2.37
2023-04-27T09:41:29.510Z,2.80
2023-04-27T09:43:58.139Z,2.00
2023-04-27T09:46:26.281Z,1.90
2023-04-27T09:48:54.436Z,2.17
2023-04-27T09:51:21.182Z,2.00
2023-04-27T09:53:53.989Z,1.93
2023-04-27T09:56:29.614Z,2.00
2023-04-27T09:59:26.877Z,2.30
2023-04-27T10:02:02.878Z,1.90
2023-04-27T10:04:56.334Z,2.23
2023-04-27T10:07:23.228Z,2.40
2023-04-27T10:09:53.665Z,2.00
2023-04-27T10:12:27.076Z,2.00
2023-04-27T10:14:54.617Z,2.33
2023-04-27T10:17:28.830Z,2.40
2023-04-27T10:20:03.758Z,2.10
2023-04-27T10:22:48.006Z,2.47
2023-04-27T10:25:22.013Z,1.93
2023-04-27T10:27:53.888Z,2.50
2023-04-27T10:30:22.180Z,2.30
2023-04-27T10:32:53.137Z,2.10
2023-04-27T10:35:21.605Z,1.90
2023-04-27T10:37:48.923Z,2.47
2023-04-27T10:40:19.190Z,2.40
2023-04-27T10:42:48.188Z,2.97
2023-04-27T10:45:25.732Z,2.20
2023-04-27T10:47:59.974Z,2.30
2023-04-27T10:50:27.545Z,2.30
2023-04-27T10:52:54.290Z,2.60
2023-04-27T10:55:23.132Z,2.10
2023-04-27T10:57:56.996Z,2.33
2023-04-27T11:00:35.435Z,2.67
2023-04-27T11:03:14.494Z,2.67
2023-04-27T11:05:42.844Z,2.60
2023-04-27T11:08:15.422Z,2.50
2023-04-27T11:10:49.088Z,2.40
2023-04-27T11:13:21.384Z,2.40
2023-04-27T11:15:54.786Z,2.40
2023-04-27T11:18:24.182Z,2.53
2023-04-27T11:20:53.664Z,2.80
2023-04-27T11:23:29.178Z,2.83
2023-04-27T11:25:56.956Z,2.43
2023-04-27T11:28:24.381Z,2.93
2023-04-27T11:30:58.623Z,2.63
2023-04-27T11:33:26.926Z,2.43
2023-04-27T11:35:54.055Z,2.63
2023-04-27T11:38:21.961Z,3.00
2023-04-27T11:41:01.210Z,2.73
2023-04-27T11:43:28.561Z,2.73
2023-04-27T11:45:56.297Z,2.97
2023-04-27T11:48:24.088Z,2.87
2023-04-27T11:50:53.306Z,3.10
2023-04-27T11:53:31.992Z,2.30
2023-04-27T11:56:05.259Z,3.20
2023-04-27T11:58:36.669Z,3.13
2023-04-27T12:01:04.794Z,3.00
2023-04-27T12:03:32.088Z,3.27
2023-04-27T12:06:11.654Z,2.73
2023-04-27T12:08:46.053Z,2.77
2023-04-27T12:11:12.724Z,2.23
2023-04-27T12:13:39.582Z,2.30
2023-04-27T12:16:06.888Z,2.43
2023-04-27T12:18:33.677Z,2.63
2023-04-27T12:21:03.117Z,2.70
2023-04-27T12:23:30.139Z,2.50
2023-04-27T12:25:56.796Z,3.03
2023-04-27T12:28:23.499Z,2.60
2023-04-27T12:30:53.735Z,2.53
2023-04-27T12:33:20.806Z,2.60
2023-04-27T12:35:47.559Z,2.60
2023-04-27T12:38:14.214Z,2.70
2023-04-27T12:40:40.845Z,2.50
2023-04-27T12:43:09.333Z,2.23
2023-04-27T12:45:36.001Z,3.03
2023-04-27T12:48:04.422Z,2.13
2023-04-27T12:50:32.481Z,2.53
2023-04-27T12:53:01.959Z,2.13
2023-04-27T12:55:32.910Z,1.87
2023-04-27T12:58:01.412Z,1.90
2023-04-27T13:00:29.529Z,2.50
2023-04-27T13:02:56.591Z,2.03
2023-04-27T13:05:23.802Z,2.27
2023-04-27T13:07:53.442Z,2.20
2023-04-27T13:10:20.106Z,2.20
2023-04-27T13:12:46.838Z,2.43
2023-04-27T13:15:13.553Z,1.73
2023-04-27T13:17:41.708Z,1.90
2023-04-27T13:20:10.779Z,2.20
2023-04-27T13:22:37.761Z,2.10
2023-04-27T13:25:06.014Z,2.60
2023-04-27T13:27:32.757Z,2.00
2023-04-27T13:30:02.312Z,2.50
2023-04-27T13:32:30.161Z,2.13
2023-04-27T13:35:00.640Z,1.83
2023-04-27T13:37:30.382Z,2.07
2023-04-27T13:39:57.055Z,1.90
2023-04-27T13:42:29.282Z,2.40
2023-04-27T13:44:57.037Z,2.10
2023-04-27T13:47:23.834Z,2.03
2023-04-27T13:49:53.056Z,2.30
2023-04-27T13:52:19.828Z,2.10
2023-04-27T13:54:46.487Z,2.10
2023-04-27T13:57:13.186Z,1.93
2023-04-27T13:59:39.815Z,2.03
2023-04-27T14:02:06.510Z,2.27
2023-04-27T14:04:33.417Z,2.43
2023-04-27T14:07:00.248Z,1.90
2023-04-27T14:09:27.313Z,2.00
2023-04-27T14:11:57.221Z,2.07
2023-04-27T14:14:24.231Z,2.00
2023-04-27T14:16:51.417Z,1.70
2023-04-27T14:19:20.280Z,1.93
2023-04-27T14:21:49.118Z,1.83
2023-04-27T14:24:15.864Z,1.70
2023-04-27T14:26:47.380Z,1.70
2023-04-27T14:29:14.756Z,1.70
2023-04-27T14:31:41.905Z,1.17
2023-04-27T14:34:08.762Z,1.93
2023-04-27T14:36:35.810Z,1.30
2023-04-27T14:39:04.329Z,1.20
2023-04-27T14:41:31.079Z,1.33
2023-04-27T14:43:57.767Z,1.40
2023-04-27T14:46:24.440Z,1.40
2023-04-27T14:48:51.392Z,1.80
2023-04-27T14:51:18.276Z,1.07
2023-04-27T14:53:45.041Z,1.43
2023-04-27T14:56:12.250Z,1.10
2023-04-27T14:58:39.154Z,1.23
2023-04-27T15:01:06.991Z,1.57
2023-04-27T15:03:34.043Z,1.00
2023-04-27T15:06:01.955Z,1.10
2023-04-27T15:08:30.741Z,1.30
2023-04-27T15:10:59.923Z,1.27
2023-04-27T15:13:27.757Z,1.50
2023-04-27T15:15:58.784Z,1.47
2023-04-27T15:18:25.929Z,1.30
2023-04-27T15:20:55.903Z,1.77
2023-04-27T15:23:23.565Z,1.23
2023-04-27T15:25:51.699Z,1.30
2023-04-27T15:28:19.062Z,1.27
2023-04-27T15:30:46.177Z,1.23
2023-04-27T15:33:14.554Z,1.40
2023-04-27T15:35:41.545Z,1.07
2023-04-27T15:38:12.958Z,1.20
2023-04-27T15:40:40.127Z,1.50
2023-04-27T15:43:09.133Z,1.40
2023-04-27T15:45:35.887Z,1.20
2023-04-27T15:48:02.679Z,1.40
2023-04-27T15:50:32.429Z,1.30
2023-04-27T15:52:59.142Z,1.30
2023-04-27T15:55:25.828Z,1.17
2023-04-27T15:57:53.396Z,1.20
2023-04-27T16:00:22.232Z,1.20
2023-04-27T16:02:49.489Z,1.13
2023-04-27T16:05:16.914Z,1.70
2023-04-27T16:07:45.002Z,1.20
2023-04-27T16:10:12.583Z,1.10
2023-04-27T16:12:39.519Z,1.37
2023-04-27T16:15:09.388Z,2.80
2023-04-27T16:17:37.949Z,1.63
2023-04-27T16:20:08.330Z,1.17
2023-04-27T16:22:36.154Z,1.20
2023-04-27T16:25:03.966Z,1.30
2023-04-27T16:27:30.864Z,1.30
2023-04-27T16:29:57.674Z,1.37
2023-04-27T16:32:24.496Z,1.53
2023-04-27T16:34:52.791Z,1.00
2023-04-27T16:37:19.505Z,1.70
2023-04-27T16:39:46.511Z,1.57
2023-04-27T16:42:18.475Z,4.00
2023-04-27T16:44:45.370Z,3.37
2023-04-27T16:47:12.347Z,2.00
2023-04-27T16:49:39.038Z,1.80
2023-04-27T16:52:06.012Z,2.10
2023-04-27T16:54:32.759Z,1.93
2023-04-27T16:56:59.554Z,1.80
2023-04-27T16:59:26.621Z,1.80
2023-04-27T17:01:53.353Z,1.80
2023-04-27T17:04:20.304Z,1.70
2023-04-27T17:06:48.801Z,1.63
2023-04-27T17:09:15.774Z,1.40
2023-04-27T17:11:42.720Z,1.63
2023-04-27T17:14:09.480Z,1.40
2023-04-27T17:16:36.181Z,1.17
2023-04-27T17:19:03.751Z,1.47
2023-04-27T17:21:31.607Z,1.50
2023-04-27T17:23:58.300Z,1.53
2023-04-27T17:26:25.087Z,1.43
2023-04-27T17:28:51.835Z,1.40
2023-04-27T17:31:18.555Z,1.37
2023-04-27T17:33:45.848Z,1.40
2023-04-27T17:36:12.890Z,1.10
2023-04-27T17:38:39.629Z,1.20
2023-04-27T17:41:06.373Z,1.37
2023-04-27T17:43:33.132Z,1.40
2023-04-27T17:45:59.897Z,1.67
2023-04-27T17:48:26.834Z,1.50
2023-04-27T17:50:53.850Z,1.50
2023-04-27T17:53:20.512Z,1.83
2023-04-27T17:55:47.938Z,1.70
2023-04-27T17:58:15.560Z,1.50
2023-04-27T18:00:43.218Z,1.40
2023-04-27T18:03:10.900Z,1.80
2023-04-27T18:05:37.900Z,1.60
2023-04-27T18:08:04.727Z,1.70
2023-04-27T18:10:34.069Z,2.20
2023-04-27T18:13:00.843Z,2.00
2023-04-27T18:15:27.595Z,2.53
2023-04-27T18:17:55.014Z,2.30
2023-04-27T18:20:23.377Z,2.53
2023-04-27T18:22:50.235Z,2.37
2023-04-27T18:25:17.006Z,2.30
2023-04-27T18:27:45.193Z,3.07
2023-04-27T18:30:12.349Z,2.00
2023-04-27T18:32:39.232Z,1.90
2023-04-27T18:35:09.407Z,2.20
2023-04-27T18:37:36.329Z,2.07
2023-04-27T18:40:05.759Z,2.90
2023-04-27T18:42:32.555Z,2.37
2023-04-27T18:45:00.788Z,1.97
2023-04-27T18:47:27.895Z,2.40
2023-04-27T18:49:57.524Z,2.37
2023-04-27T18:52:24.361Z,2.90
2023-04-27T18:54:51.192Z,2.23
2023-04-27T18:57:18.050Z,2.80
2023-04-27T18:59:44.785Z,2.30
2023-04-27T19:02:13.626Z,2.73
2023-04-27T19:04:45.373Z,2.80
2023-04-27T19:07:19.752Z,3.73
2023-04-27T19:09:49.161Z,2.97
2023-04-27T19:12:15.977Z,2.63
2023-04-27T19:14:42.651Z,2.80
2023-04-27T19:17:11.620Z,2.40
2023-04-27T19:19:38.385Z,2.80
2023-04-27T19:22:05.406Z,2.57
2023-04-27T19:24:32.497Z,2.30
2023-04-27T19:26:59.318Z,2.30
2023-04-27T19:29:28.989Z,2.47
2023-04-27T19:31:56.131Z,3.00
2023-04-27T19:34:23.055Z,2.47
2023-04-27T19:36:50.110Z,2.30
2023-04-27T19:39:19.301Z,2.30
2023-04-27T19:41:46.166Z,2.80
2023-04-27T19:44:13.035Z,3.17
2023-04-27T19:46:40.048Z,2.10
2023-04-27T19:49:06.842Z,2.60
2023-04-27T19:51:33.684Z,1.70
2023-04-27T19:54:00.543Z,1.53
2023-04-27T19:56:27.293Z,1.90
2023-04-27T19:58:54.065Z,2.20
2023-04-27T20:01:21.924Z,1.43
2023-04-27T20:03:48.777Z,1.57
2023-04-27T20:06:15.799Z,2.00
2023-04-27T20:08:42.508Z,1.90
2023-04-27T20:11:09.339Z,2.13
2023-04-27T20:13:36.134Z,3.60
2023-04-27T20:16:03.047Z,3.00
2023-04-27T20:18:31.810Z,2.47
2023-04-27T20:21:01.762Z,2.03
2023-04-27T20:23:28.432Z,2.27
2023-04-27T20:25:55.168Z,2.23
2023-04-27T20:28:21.902Z,2.30
2023-04-27T20:30:51.029Z,2.60
2023-04-27T20:33:18.351Z,2.20
2023-04-27T20:35:46.722Z,2.33
2023-04-27T20:38:13.683Z,2.60
2023-04-27T20:40:43.084Z,2.13
2023-04-27T20:43:09.825Z,2.43
2023-04-27T20:45:36.610Z,2.07
2023-04-27T20:48:03.436Z,1.97
2023-04-27T20:50:30.890Z,2.50
2023-04-27T20:52:57.637Z,2.50
2023-04-27T20:55:24.406Z,2.27
2023-04-27T20:57:51.255Z,1.80
2023-04-27T21:00:20.582Z,2.10
2023-04-27T21:02:51.173Z,2.20
2023-04-27T21:05:17.987Z,2.17
2023-04-27T21:07:44.650Z,2.20
2023-04-27T21:10:12.673Z,2.23
2023-04-27T21:12:39.403Z,1.90
2023-04-27T21:15:06.575Z,2.27
2023-04-27T21:17:33.370Z,2.33
2023-04-27T21:19:59.995Z,2.60
2023-04-27T21:22:26.845Z,2.60
2023-04-27T21:24:53.532Z,2.33
2023-04-27T21:27:20.379Z,2.43
2023-04-27T21:29:47.019Z,2.57
2023-04-27T21:32:13.709Z,2.43
2023-04-27T21:34:40.683Z,2.57
2023-04-27T21:37:07.318Z,2.90
2023-04-27T21:39:34.042Z,2.60
2023-04-27T21:42:00.743Z,2.77
2023-04-27T21:44:27.407Z,3.10
2023-04-27T21:46:54.045Z,3.17
2023-04-27T21:49:20.948Z,3.30
2023-04-27T21:51:47.680Z,2.90
2023-04-27T21:54:14.592Z,3.07
2023-04-27T21:56:41.752Z,3.20
2023-04-27T21:59:08.483Z,3.33
2023-04-27T22:01:35.208Z,3.03
2023-04-27T22:04:04.103Z,3.17
2023-04-27T22:06:30.981Z,3.10
2023-04-27T22:08:57.803Z,3.23
2023-04-27T22:11:24.591Z,3.03
2023-04-27T22:13:51.291Z,3.20
2023-04-27T22:16:17.982Z,2.57
2023-04-27T22:18:44.676Z,3.23
2023-04-27T22:21:12.885Z,3.03
2023-04-27T22:23:40.131Z,3.60
2023-04-27T22:26:08.874Z,3.20
2023-04-27T22:28:35.834Z,3.27
2023-04-27T22:31:02.559Z,2.77
2023-04-27T22:33:29.269Z,3.27
2023-04-27T22:35:55.977Z,3.53
2023-04-27T22:38:22.609Z,3.70
2023-04-27T22:40:49.316Z,3.47
2023-04-27T22:43:16.067Z,3.33
2023-04-27T22:45:42.693Z,3.30
2023-04-27T22:48:09.447Z,3.57
2023-04-27T22:50:36.170Z,3.53
2023-04-27T22:53:06.213Z,3.13
2023-04-27T22:55:32.825Z,3.63
2023-04-27T22:57:59.498Z,3.60
2023-04-27T23:00:26.278Z,3.57
2023-04-27T23:02:53.111Z,3.83
2023-04-27T23:05:20.050Z,3.23
2023-04-27T23:07:46.805Z,3.37
2023-04-27T23:10:15.071Z,3.90
2023-04-27T23:12:41.884Z,3.53
2023-04-27T23:15:09.400Z,3.70
2023-04-27T23:17:36.333Z,3.27
2023-04-27T23:20:24.167Z,3.60
2023-04-27T23:22:53.763Z,3.67
2023-04-27T23:25:20.632Z,3.90
2023-04-27T23:27:48.097Z,3.53
2023-04-27T23:30:16.135Z,3.67
2023-04-27T23:32:43.096Z,4.40
2023-04-27T23:35:09.850Z,3.90
2023-04-27T23:37:36.505Z,3.90
2023-04-27T23:40:04.440Z,3.80
2023-04-27T23:42:31.074Z,3.50
2023-04-27T23:44:58.305Z,3.93
2023-04-27T23:47:24.956Z,4.07
2023-04-27T23:49:51.571Z,4.00
2023-04-27T23:52:18.246Z,3.73
2023-04-27T23:54:44.897Z,4.03
2023-04-27T23:57:11.579Z,3.87
2023-04-27T23:59:38.340Z,4.10
